sensor_id;sensor_type;location;lat;lon;timestamp;P1;durP1;ratioP1;P2;durP2;ratioP2
5841;SDS011;2947;52.276;9.946;2023-04-22T00:02:06;14.60;;;8.25;;
5841;SDS011;2947;52.276;9.946;2023-04-22T00:04:32;13.10;;;8.90;;
5841;SDS011;2947;52.276;9.946;2023-04-22T00:06:58;15.48;;;8.57;;
5841;SDS011;2947;52.276;9.946;2023-04-22T00:09:24;13.40;;;9.23;;
5841;SDS011;2947;52.276;9.946;2023-04-22T00:11:50;14.75;;;8.43;;
5841;SDS011;2947;52.276;9.946;2023-04-22T00:14:16;12.85;;;8.95;;
5841;SDS011;2947;52.276;9.946;2023-04-22T00:16:42;13.30;;;8.20;;
5841;SDS011;2947;52.276;9.946;2023-04-22T00:19:08;15.95;;;9.30;;
5841;SDS011;2947;52.276;9.946;2023-04-22T00:21:34;13.73;;;9.00;;
5841;SDS011;2947;52.276;9.946;2023-04-22T00:24:00;16.58;;;8.70;;
5841;SDS011;2947;52.276;9.946;2023-04-22T00:26:26;13.38;;;8.63;;
5841;SDS011;2947;52.276;9.946;2023-04-22T00:28:51;12.77;;;8.40;;
5841;SDS011;2947;52.276;9.946;2023-04-22T00:31:17;13.68;;;8.98;;
5841;SDS011;2947;52.276;9.946;2023-04-22T00:33:43;15.68;;;8.73;;
5841;SDS011;2947;52.276;9.946;2023-04-22T00:36:08;13.65;;;9.05;;
5841;SDS011;2947;52.276;9.946;2023-04-22T00:38:34;14.07;;;9.40;;
5841;SDS011;2947;52.276;9.946;2023-04-22T00:41:00;16.70;;;8.98;;
5841;SDS011;2947;52.276;9.946;2023-04-22T00:43:26;13.18;;;8.88;;
5841;SDS011;2947;52.276;9.946;2023-04-22T00:45:52;16.60;;;9.60;;
5841;SDS011;2947;52.276;9.946;2023-04-22T00:48:18;16.75;;;9.85;;
5841;SDS011;2947;52.276;9.946;2023-04-22T00:50:44;12.05;;;8.13;;
5841;SDS011;2947;52.276;9.946;2023-04-22T00:53:09;15.23;;;8.90;;
5841;SDS011;2947;52.276;9.946;2023-04-22T00:55:35;15.15;;;9.00;;
5841;SDS011;2947;52.276;9.946;2023-04-22T00:58:01;13.27;;;8.25;;
5841;SDS011;2947;52.276;9.946;2023-04-22T01:00:28;13.68;;;9.82;;
5841;SDS011;2947;52.276;9.946;2023-04-22T01:02:54;17.65;;;9.98;;
5841;SDS011;2947;52.276;9.946;2023-04-22T01:05:22;12.20;;;8.95;;
5841;SDS011;2947;52.276;9.946;2023-04-22T01:07:49;12.70;;;9.15;;
5841;SDS011;2947;52.276;9.946;2023-04-22T01:10:15;12.60;;;8.02;;
5841;SDS011;2947;52.276;9.946;2023-04-22T01:12:42;14.63;;;8.60;;
5841;SDS011;2947;52.276;9.946;2023-04-22T01:15:08;14.82;;;10.27;;
5841;SDS011;2947;52.276;9.946;2023-04-22T01:17:35;17.58;;;10.07;;
5841;SDS011;2947;52.276;9.946;2023-04-22T01:20:01;13.27;;;9.10;;
5841;SDS011;2947;52.276;9.946;2023-04-22T01:22:34;15.05;;;8.20;;
5841;SDS011;2947;52.276;9.946;2023-04-22T01:25:05;16.33;;;9.80;;
5841;SDS011;2947;52.276;9.946;2023-04-22T01:27:33;15.52;;;10.25;;
5841;SDS011;2947;52.276;9.946;2023-04-22T01:29:59;16.38;;;10.43;;
5841;SDS011;2947;52.276;9.946;2023-04-22T01:32:25;18.17;;;9.88;;
5841;SDS011;2947;52.276;9.946;2023-04-22T01:34:52;16.15;;;9.65;;
5841;SDS011;2947;52.276;9.946;2023-04-22T01:37:18;24.52;;;9.85;;
5841;SDS011;2947;52.276;9.946;2023-04-22T01:39:43;13.77;;;8.93;;
5841;SDS011;2947;52.276;9.946;2023-04-22T01:42:11;15.18;;;9.38;;
5841;SDS011;2947;52.276;9.946;2023-04-22T01:44:36;15.27;;;9.93;;
5841;SDS011;2947;52.276;9.946;2023-04-22T01:47:02;17.67;;;10.07;;
5841;SDS011;2947;52.276;9.946;2023-04-22T01:49:29;14.68;;;10.48;;
5841;SDS011;2947;52.276;9.946;2023-04-22T01:51:55;17.30;;;10.13;;
5841;SDS011;2947;52.276;9.946;2023-04-22T01:54:24;15.70;;;10.33;;
5841;SDS011;2947;52.276;9.946;2023-04-22T01:56:51;15.38;;;10.25;;
5841;SDS011;2947;52.276;9.946;2023-04-22T01:59:19;15.83;;;9.80;;
5841;SDS011;2947;52.276;9.946;2023-04-22T02:01:45;16.30;;;9.57;;
5841;SDS011;2947;52.276;9.946;2023-04-22T02:04:12;18.70;;;10.57;;
5841;SDS011;2947;52.276;9.946;2023-04-22T02:06:38;19.67;;;10.60;;
5841;SDS011;2947;52.276;9.946;2023-04-22T02:09:03;13.27;;;10.27;;
5841;SDS011;2947;52.276;9.946;2023-04-22T02:11:29;21.50;;;11.00;;
5841;SDS011;2947;52.276;9.946;2023-04-22T02:13:55;17.00;;;10.50;;
5841;SDS011;2947;52.276;9.946;2023-04-22T02:16:21;17.37;;;10.30;;
5841;SDS011;2947;52.276;9.946;2023-04-22T02:18:47;19.60;;;10.37;;
5841;SDS011;2947;52.276;9.946;2023-04-22T02:21:13;25.23;;;10.97;;
5841;SDS011;2947;52.276;9.946;2023-04-22T02:23:38;18.77;;;10.90;;
5841;SDS011;2947;52.276;9.946;2023-04-22T02:26:05;17.17;;;10.90;;
5841;SDS011;2947;52.276;9.946;2023-04-22T02:28:32;17.00;;;11.30;;
5841;SDS011;2947;52.276;9.946;2023-04-22T02:30:58;15.63;;;10.50;;
5841;SDS011;2947;52.276;9.946;2023-04-22T02:33:24;16.17;;;11.30;;
5841;SDS011;2947;52.276;9.946;2023-04-22T02:35:50;18.03;;;11.23;;
5841;SDS011;2947;52.276;9.946;2023-04-22T02:38:16;21.50;;;11.17;;
5841;SDS011;2947;52.276;9.946;2023-04-22T02:40:41;16.37;;;10.47;;
5841;SDS011;2947;52.276;9.946;2023-04-22T02:43:07;17.33;;;10.70;;
5841;SDS011;2947;52.276;9.946;2023-04-22T02:45:33;19.20;;;11.10;;
5841;SDS011;2947;52.276;9.946;2023-04-22T02:47:59;17.43;;;10.93;;
5841;SDS011;2947;52.276;9.946;2023-04-22T02:50:25;17.70;;;11.33;;
5841;SDS011;2947;52.276;9.946;2023-04-22T02:52:51;19.40;;;11.10;;
5841;SDS011;2947;52.276;9.946;2023-04-22T02:55:17;17.70;;;11.20;;
5841;SDS011;2947;52.276;9.946;2023-04-22T02:57:42;18.87;;;10.77;;
5841;SDS011;2947;52.276;9.946;2023-04-22T03:00:08;17.37;;;10.37;;
5841;SDS011;2947;52.276;9.946;2023-04-22T03:02:34;17.37;;;11.60;;
5841;SDS011;2947;52.276;9.946;2023-04-22T03:05:00;18.17;;;10.80;;
5841;SDS011;2947;52.276;9.946;2023-04-22T03:07:26;13.73;;;10.40;;
5841;SDS011;2947;52.276;9.946;2023-04-22T03:09:52;20.10;;;12.20;;
5841;SDS011;2947;52.276;9.946;2023-04-22T03:12:19;20.73;;;11.90;;
5841;SDS011;2947;52.276;9.946;2023-04-22T03:14:45;15.90;;;11.00;;
5841;SDS011;2947;52.276;9.946;2023-04-22T03:17:11;14.60;;;10.40;;
5841;SDS011;2947;52.276;9.946;2023-04-22T03:19:37;19.10;;;10.80;;
5841;SDS011;2947;52.276;9.946;2023-04-22T03:22:02;15.57;;;10.57;;
5841;SDS011;2947;52.276;9.946;2023-04-22T03:24:28;19.53;;;10.13;;
5841;SDS011;2947;52.276;9.946;2023-04-22T03:26:54;20.63;;;11.37;;
5841;SDS011;2947;52.276;9.946;2023-04-22T03:29:20;19.73;;;11.00;;
5841;SDS011;2947;52.276;9.946;2023-04-22T03:31:45;19.43;;;10.30;;
5841;SDS011;2947;52.276;9.946;2023-04-22T03:34:11;20.60;;;12.00;;
5841;SDS011;2947;52.276;9.946;2023-04-22T03:36:37;18.40;;;11.17;;
5841;SDS011;2947;52.276;9.946;2023-04-22T03:39:02;23.70;;;10.63;;
5841;SDS011;2947;52.276;9.946;2023-04-22T03:41:29;15.30;;;10.00;;
5841;SDS011;2947;52.276;9.946;2023-04-22T03:43:54;18.47;;;10.67;;
5841;SDS011;2947;52.276;9.946;2023-04-22T03:46:20;18.97;;;10.50;;
5841;SDS011;2947;52.276;9.946;2023-04-22T03:48:46;19.43;;;10.63;;
5841;SDS011;2947;52.276;9.946;2023-04-22T03:51:11;19.20;;;10.63;;
5841;SDS011;2947;52.276;9.946;2023-04-22T03:53:37;17.53;;;10.90;;
5841;SDS011;2947;52.276;9.946;2023-04-22T03:56:03;16.03;;;9.97;;
5841;SDS011;2947;52.276;9.946;2023-04-22T03:58:29;16.83;;;10.30;;
5841;SDS011;2947;52.276;9.946;2023-04-22T04:00:55;16.73;;;10.83;;
5841;SDS011;2947;52.276;9.946;2023-04-22T04:03:20;16.07;;;10.37;;
5841;SDS011;2947;52.276;9.946;2023-04-22T04:05:46;18.77;;;11.00;;
5841;SDS011;2947;52.276;9.946;2023-04-22T04:08:12;15.57;;;9.83;;
5841;SDS011;2947;52.276;9.946;2023-04-22T04:10:37;20.17;;;10.10;;
5841;SDS011;2947;52.276;9.946;2023-04-22T04:13:03;17.13;;;11.17;;
5841;SDS011;2947;52.276;9.946;2023-04-22T04:15:30;16.50;;;10.07;;
5841;SDS011;2947;52.276;9.946;2023-04-22T04:17:56;20.30;;;12.30;;
5841;SDS011;2947;52.276;9.946;2023-04-22T04:20:25;15.00;;;9.80;;
5841;SDS011;2947;52.276;9.946;2023-04-22T04:22:51;18.30;;;11.53;;
5841;SDS011;2947;52.276;9.946;2023-04-22T04:25:16;16.30;;;10.60;;
5841;SDS011;2947;52.276;9.946;2023-04-22T04:27:45;17.83;;;10.00;;
5841;SDS011;2947;52.276;9.946;2023-04-22T04:30:11;15.70;;;10.70;;
5841;SDS011;2947;52.276;9.946;2023-04-22T04:32:38;14.40;;;9.23;;
5841;SDS011;2947;52.276;9.946;2023-04-22T04:35:04;14.87;;;10.20;;
5841;SDS011;2947;52.276;9.946;2023-04-22T04:37:30;20.50;;;10.60;;
5841;SDS011;2947;52.276;9.946;2023-04-22T04:39:56;15.80;;;10.27;;
5841;SDS011;2947;52.276;9.946;2023-04-22T04:42:23;17.37;;;11.67;;
5841;SDS011;2947;52.276;9.946;2023-04-22T04:44:49;13.90;;;10.07;;
5841;SDS011;2947;52.276;9.946;2023-04-22T04:47:16;17.97;;;11.77;;
5841;SDS011;2947;52.276;9.946;2023-04-22T04:49:42;18.17;;;11.13;;
5841;SDS011;2947;52.276;9.946;2023-04-22T04:52:10;18.33;;;11.07;;
5841;SDS011;2947;52.276;9.946;2023-04-22T04:54:36;19.80;;;11.30;;
5841;SDS011;2947;52.276;9.946;2023-04-22T04:57:02;22.50;;;11.40;;
5841;SDS011;2947;52.276;9.946;2023-04-22T04:59:29;18.27;;;11.90;;
5841;SDS011;2947;52.276;9.946;2023-04-22T05:01:55;15.60;;;10.13;;
5841;SDS011;2947;52.276;9.946;2023-04-22T05:04:21;14.50;;;10.17;;
5841;SDS011;2947;52.276;9.946;2023-04-22T05:06:46;21.73;;;11.60;;
5841;SDS011;2947;52.276;9.946;2023-04-22T05:09:12;19.40;;;13.00;;
5841;SDS011;2947;52.276;9.946;2023-04-22T05:11:38;18.10;;;10.80;;
5841;SDS011;2947;52.276;9.946;2023-04-22T05:14:04;16.83;;;11.37;;
5841;SDS011;2947;52.276;9.946;2023-04-22T05:16:30;16.70;;;10.50;;
5841;SDS011;2947;52.276;9.946;2023-04-22T05:18:56;20.87;;;12.37;;
5841;SDS011;2947;52.276;9.946;2023-04-22T05:21:22;13.63;;;9.77;;
5841;SDS011;2947;52.276;9.946;2023-04-22T05:23:47;21.60;;;11.03;;
5841;SDS011;2947;52.276;9.946;2023-04-22T05:26:13;18.67;;;11.03;;
5841;SDS011;2947;52.276;9.946;2023-04-22T05:28:39;15.60;;;10.33;;
5841;SDS011;2947;52.276;9.946;2023-04-22T05:31:05;13.97;;;10.03;;
5841;SDS011;2947;52.276;9.946;2023-04-22T05:33:31;13.67;;;10.10;;
5841;SDS011;2947;52.276;9.946;2023-04-22T05:35:57;15.03;;;9.30;;
5841;SDS011;2947;52.276;9.946;2023-04-22T05:38:22;15.43;;;9.53;;
5841;SDS011;2947;52.276;9.946;2023-04-22T05:40:48;14.90;;;9.60;;
5841;SDS011;2947;52.276;9.946;2023-04-22T05:43:14;22.33;;;9.80;;
5841;SDS011;2947;52.276;9.946;2023-04-22T05:45:40;15.90;;;10.30;;
5841;SDS011;2947;52.276;9.946;2023-04-22T05:48:06;19.13;;;9.50;;
5841;SDS011;2947;52.276;9.946;2023-04-22T05:50:31;18.13;;;9.73;;
5841;SDS011;2947;52.276;9.946;2023-04-22T05:52:57;16.83;;;10.10;;
5841;SDS011;2947;52.276;9.946;2023-04-22T05:55:23;11.55;;;8.05;;
5841;SDS011;2947;52.276;9.946;2023-04-22T05:57:48;18.05;;;9.73;;
5841;SDS011;2947;52.276;9.946;2023-04-22T06:00:15;16.77;;;9.17;;
5841;SDS011;2947;52.276;9.946;2023-04-22T06:02:41;15.25;;;9.20;;
5841;SDS011;2947;52.276;9.946;2023-04-22T06:05:07;23.30;;;9.27;;
5841;SDS011;2947;52.276;9.946;2023-04-22T06:07:33;19.63;;;9.65;;
5841;SDS011;2947;52.276;9.946;2023-04-22T06:09:59;14.63;;;8.48;;
5841;SDS011;2947;52.276;9.946;2023-04-22T06:12:25;13.10;;;8.57;;
5841;SDS011;2947;52.276;9.946;2023-04-22T06:14:50;16.65;;;9.85;;
5841;SDS011;2947;52.276;9.946;2023-04-22T06:17:16;14.48;;;7.78;;
5841;SDS011;2947;52.276;9.946;2023-04-22T06:19:42;12.57;;;8.90;;
5841;SDS011;2947;52.276;9.946;2023-04-22T06:22:07;15.05;;;9.18;;
5841;SDS011;2947;52.276;9.946;2023-04-22T06:24:33;14.75;;;9.32;;
5841;SDS011;2947;52.276;9.946;2023-04-22T06:26:59;15.68;;;9.98;;
5841;SDS011;2947;52.276;9.946;2023-04-22T06:29:24;14.40;;;9.13;;
5841;SDS011;2947;52.276;9.946;2023-04-22T06:31:50;16.00;;;9.35;;
5841;SDS011;2947;52.276;9.946;2023-04-22T06:34:17;23.92;;;9.00;;
5841;SDS011;2947;52.276;9.946;2023-04-22T06:36:43;16.98;;;8.10;;
5841;SDS011;2947;52.276;9.946;2023-04-22T06:39:09;13.68;;;8.07;;
5841;SDS011;2947;52.276;9.946;2023-04-22T06:41:35;15.57;;;8.68;;
5841;SDS011;2947;52.276;9.946;2023-04-22T06:44:00;12.30;;;7.32;;
5841;SDS011;2947;52.276;9.946;2023-04-22T06:46:26;14.88;;;8.63;;
5841;SDS011;2947;52.276;9.946;2023-04-22T06:48:52;10.70;;;7.32;;
5841;SDS011;2947;52.276;9.946;2023-04-22T06:51:18;15.63;;;9.05;;
5841;SDS011;2947;52.276;9.946;2023-04-22T06:53:44;15.05;;;8.68;;
5841;SDS011;2947;52.276;9.946;2023-04-22T06:56:10;13.10;;;8.20;;
5841;SDS011;2947;52.276;9.946;2023-04-22T06:58:36;11.85;;;8.13;;
5841;SDS011;2947;52.276;9.946;2023-04-22T07:01:02;15.35;;;7.10;;
5841;SDS011;2947;52.276;9.946;2023-04-22T07:03:27;11.30;;;6.53;;
5841;SDS011;2947;52.276;9.946;2023-04-22T07:05:53;13.07;;;8.20;;
5841;SDS011;2947;52.276;9.946;2023-04-22T07:08:19;13.45;;;7.97;;
5841;SDS011;2947;52.276;9.946;2023-04-22T07:10:44;10.80;;;6.32;;
5841;SDS011;2947;52.276;9.946;2023-04-22T07:13:10;11.95;;;6.53;;
5841;SDS011;2947;52.276;9.946;2023-04-22T07:15:36;7.50;;;3.97;;
5841;SDS011;2947;52.276;9.946;2023-04-22T07:18:01;7.28;;;3.78;;
5841;SDS011;2947;52.276;9.946;2023-04-22T07:20:27;10.10;;;3.55;;
5841;SDS011;2947;52.276;9.946;2023-04-22T07:22:53;7.85;;;3.53;;
5841;SDS011;2947;52.276;9.946;2023-04-22T07:25:18;10.00;;;4.40;;
5841;SDS011;2947;52.276;9.946;2023-04-22T07:27:44;6.88;;;3.60;;
5841;SDS011;2947;52.276;9.946;2023-04-22T07:30:10;6.30;;;3.45;;
5841;SDS011;2947;52.276;9.946;2023-04-22T07:32:37;6.22;;;3.13;;
5841;SDS011;2947;52.276;9.946;2023-04-22T07:35:03;6.45;;;3.65;;
5841;SDS011;2947;52.276;9.946;2023-04-22T07:37:29;8.68;;;3.90;;
5841;SDS011;2947;52.276;9.946;2023-04-22T07:39:55;11.43;;;4.28;;
5841;SDS011;2947;52.276;9.946;2023-04-22T07:42:21;11.07;;;3.20;;
5841;SDS011;2947;52.276;9.946;2023-04-22T07:44:47;5.38;;;2.40;;
5841;SDS011;2947;52.276;9.946;2023-04-22T07:47:12;6.72;;;3.65;;
5841;SDS011;2947;52.276;9.946;2023-04-22T07:49:38;8.40;;;3.70;;
5841;SDS011;2947;52.276;9.946;2023-04-22T07:52:04;6.50;;;3.60;;
5841;SDS011;2947;52.276;9.946;2023-04-22T07:54:29;6.03;;;3.30;;
5841;SDS011;2947;52.276;9.946;2023-04-22T07:56:55;8.60;;;3.55;;
5841;SDS011;2947;52.276;9.946;2023-04-22T07:59:22;6.10;;;3.80;;
5841;SDS011;2947;52.276;9.946;2023-04-22T08:01:48;6.40;;;3.17;;
5841;SDS011;2947;52.276;9.946;2023-04-22T08:04:13;14.40;;;3.65;;
5841;SDS011;2947;52.276;9.946;2023-04-22T08:06:39;6.55;;;3.53;;
5841;SDS011;2947;52.276;9.946;2023-04-22T08:09:05;8.43;;;3.63;;
5841;SDS011;2947;52.276;9.946;2023-04-22T08:11:31;10.70;;;3.45;;
5841;SDS011;2947;52.276;9.946;2023-04-22T08:13:57;7.00;;;3.47;;
5841;SDS011;2947;52.276;9.946;2023-04-22T08:16:22;6.28;;;3.42;;
5841;SDS011;2947;52.276;9.946;2023-04-22T08:18:48;7.63;;;3.08;;
5841;SDS011;2947;52.276;9.946;2023-04-22T08:21:13;7.25;;;3.10;;
5841;SDS011;2947;52.276;9.946;2023-04-22T08:23:39;8.50;;;3.70;;
5841;SDS011;2947;52.276;9.946;2023-04-22T08:26:05;7.80;;;3.60;;
5841;SDS011;2947;52.276;9.946;2023-04-22T08:28:32;8.20;;;3.85;;
5841;SDS011;2947;52.276;9.946;2023-04-22T08:30:59;6.65;;;3.15;;
5841;SDS011;2947;52.276;9.946;2023-04-22T08:33:25;6.70;;;3.20;;
5841;SDS011;2947;52.276;9.946;2023-04-22T08:35:51;6.57;;;3.15;;
5841;SDS011;2947;52.276;9.946;2023-04-22T08:38:17;7.30;;;3.15;;
5841;SDS011;2947;52.276;9.946;2023-04-22T08:40:43;8.55;;;3.30;;
5841;SDS011;2947;52.276;9.946;2023-04-22T08:43:08;9.27;;;3.83;;
5841;SDS011;2947;52.276;9.946;2023-04-22T08:45:36;6.47;;;3.63;;
5841;SDS011;2947;52.276;9.946;2023-04-22T08:48:04;7.72;;;3.33;;
5841;SDS011;2947;52.276;9.946;2023-04-22T08:50:32;8.27;;;3.65;;
5841;SDS011;2947;52.276;9.946;2023-04-22T08:53:01;8.40;;;3.45;;
5841;SDS011;2947;52.276;9.946;2023-04-22T08:55:26;5.47;;;2.60;;
5841;SDS011;2947;52.276;9.946;2023-04-22T08:57:52;4.88;;;2.75;;
5841;SDS011;2947;52.276;9.946;2023-04-22T09:00:18;10.45;;;3.35;;
5841;SDS011;2947;52.276;9.946;2023-04-22T09:02:44;5.25;;;3.13;;
5841;SDS011;2947;52.276;9.946;2023-04-22T09:05:11;7.88;;;3.42;;
5841;SDS011;2947;52.276;9.946;2023-04-22T09:07:38;5.30;;;3.17;;
5841;SDS011;2947;52.276;9.946;2023-04-22T09:10:05;9.32;;;2.85;;
5841;SDS011;2947;52.276;9.946;2023-04-22T09:12:32;10.57;;;4.63;;
5841;SDS011;2947;52.276;9.946;2023-04-22T09:14:58;5.15;;;2.72;;
5841;SDS011;2947;52.276;9.946;2023-04-22T09:17:30;6.85;;;3.35;;
5841;SDS011;2947;52.276;9.946;2023-04-22T09:20:03;6.78;;;3.40;;
5841;SDS011;2947;52.276;9.946;2023-04-22T09:25:27;6.82;;;3.00;;
5841;SDS011;2947;52.276;9.946;2023-04-22T09:27:53;6.28;;;3.40;;
5841;SDS011;2947;52.276;9.946;2023-04-22T09:30:24;5.55;;;2.85;;
5841;SDS011;2947;52.276;9.946;2023-04-22T09:32:59;4.47;;;2.50;;
5841;SDS011;2947;52.276;9.946;2023-04-22T09:35:31;7.47;;;2.25;;
5841;SDS011;2947;52.276;9.946;2023-04-22T09:38:01;8.05;;;2.50;;
5841;SDS011;2947;52.276;9.946;2023-04-22T09:40:30;9.20;;;2.63;;
5841;SDS011;2947;52.276;9.946;2023-04-22T09:42:57;7.50;;;2.30;;
5841;SDS011;2947;52.276;9.946;2023-04-22T09:47:55;5.15;;;2.33;;
5841;SDS011;2947;52.276;9.946;2023-04-22T09:50:24;7.25;;;2.75;;
5841;SDS011;2947;52.276;9.946;2023-04-22T09:52:52;4.95;;;2.72;;
5841;SDS011;2947;52.276;9.946;2023-04-22T09:55:21;6.78;;;2.75;;
5841;SDS011;2947;52.276;9.946;2023-04-22T09:57:52;4.55;;;3.20;;
5841;SDS011;2947;52.276;9.946;2023-04-22T10:00:21;5.25;;;3.00;;
5841;SDS011;2947;52.276;9.946;2023-04-22T10:02:53;9.10;;;2.70;;
5841;SDS011;2947;52.276;9.946;2023-04-22T10:05:18;9.55;;;4.15;;
5841;SDS011;2947;52.276;9.946;2023-04-22T10:07:45;8.43;;;3.65;;
5841;SDS011;2947;52.276;9.946;2023-04-22T10:10:10;6.28;;;3.80;;
5841;SDS011;2947;52.276;9.946;2023-04-22T10:12:37;8.13;;;4.43;;
5841;SDS011;2947;52.276;9.946;2023-04-22T10:15:03;6.40;;;3.80;;
5841;SDS011;2947;52.276;9.946;2023-04-22T10:17:32;7.55;;;3.22;;
5841;SDS011;2947;52.276;9.946;2023-04-22T10:20:02;10.52;;;3.88;;
5841;SDS011;2947;52.276;9.946;2023-04-22T10:22:32;7.15;;;3.83;;
5841;SDS011;2947;52.276;9.946;2023-04-22T10:24:59;4.88;;;3.60;;
5841;SDS011;2947;52.276;9.946;2023-04-22T10:27:24;8.95;;;3.50;;
5841;SDS011;2947;52.276;9.946;2023-04-22T10:29:50;7.55;;;3.25;;
5841;SDS011;2947;52.276;9.946;2023-04-22T10:34:42;9.05;;;3.53;;
5841;SDS011;2947;52.276;9.946;2023-04-22T10:37:11;5.15;;;2.97;;
5841;SDS011;2947;52.276;9.946;2023-04-22T10:39:39;5.18;;;3.50;;
5841;SDS011;2947;52.276;9.946;2023-04-22T10:42:07;7.13;;;3.33;;
5841;SDS011;2947;52.276;9.946;2023-04-22T10:47:32;6.10;;;3.78;;
5841;SDS011;2947;52.276;9.946;2023-04-22T10:52:37;5.80;;;3.35;;
5841;SDS011;2947;52.276;9.946;2023-04-22T10:55:04;7.28;;;3.72;;
5841;SDS011;2947;52.276;9.946;2023-04-22T10:57:40;8.15;;;3.83;;
5841;SDS011;2947;52.276;9.946;2023-04-22T11:00:30;6.82;;;3.55;;
5841;SDS011;2947;52.276;9.946;2023-04-22T11:03:09;9.45;;;4.38;;
5841;SDS011;2947;52.276;9.946;2023-04-22T11:05:37;10.23;;;4.05;;
5841;SDS011;2947;52.276;9.946;2023-04-22T11:08:11;8.55;;;4.47;;
5841;SDS011;2947;52.276;9.946;2023-04-22T11:10:45;10.82;;;3.72;;
5841;SDS011;2947;52.276;9.946;2023-04-22T11:13:14;10.20;;;3.38;;
5841;SDS011;2947;52.276;9.946;2023-04-22T11:15:44;10.15;;;3.35;;
5841;SDS011;2947;52.276;9.946;2023-04-22T11:18:20;14.05;;;4.32;;
5841;SDS011;2947;52.276;9.946;2023-04-22T11:20:48;7.20;;;3.20;;
5841;SDS011;2947;52.276;9.946;2023-04-22T11:23:22;9.23;;;3.92;;
5841;SDS011;2947;52.276;9.946;2023-04-22T11:26:00;4.72;;;2.00;;
5841;SDS011;2947;52.276;9.946;2023-04-22T11:28:29;5.95;;;2.67;;
5841;SDS011;2947;52.276;9.946;2023-04-22T11:31:05;5.07;;;2.30;;
5841;SDS011;2947;52.276;9.946;2023-04-22T11:33:33;9.50;;;2.15;;
5841;SDS011;2947;52.276;9.946;2023-04-22T11:36:00;5.57;;;2.63;;
5841;SDS011;2947;52.276;9.946;2023-04-22T11:38:26;4.82;;;2.30;;
5841;SDS011;2947;52.276;9.946;2023-04-22T11:40:53;5.38;;;2.53;;
5841;SDS011;2947;52.276;9.946;2023-04-22T11:43:21;5.28;;;1.98;;
5841;SDS011;2947;52.276;9.946;2023-04-22T11:45:47;4.10;;;2.63;;
5841;SDS011;2947;52.276;9.946;2023-04-22T11:48:13;4.93;;;2.25;;
5841;SDS011;2947;52.276;9.946;2023-04-22T11:50:40;7.38;;;2.47;;
5841;SDS011;2947;52.276;9.946;2023-04-22T11:53:12;8.77;;;2.58;;
5841;SDS011;2947;52.276;9.946;2023-04-22T11:55:40;4.20;;;2.40;;
5841;SDS011;2947;52.276;9.946;2023-04-22T11:58:09;3.60;;;2.40;;
5841;SDS011;2947;52.276;9.946;2023-04-22T12:00:44;5.15;;;2.80;;
5841;SDS011;2947;52.276;9.946;2023-04-22T12:03:16;4.35;;;2.58;;
5841;SDS011;2947;52.276;9.946;2023-04-22T12:05:44;6.22;;;2.72;;
5841;SDS011;2947;52.276;9.946;2023-04-22T12:08:16;4.88;;;2.83;;
5841;SDS011;2947;52.276;9.946;2023-04-22T12:10:49;8.52;;;2.40;;
5841;SDS011;2947;52.276;9.946;2023-04-22T12:13:27;4.45;;;3.00;;
5841;SDS011;2947;52.276;9.946;2023-04-22T12:18:27;6.65;;;3.10;;
5841;SDS011;2947;52.276;9.946;2023-04-22T12:20:57;6.82;;;2.85;;
5841;SDS011;2947;52.276;9.946;2023-04-22T12:23:30;10.43;;;2.55;;
5841;SDS011;2947;52.276;9.946;2023-04-22T12:26:12;4.22;;;2.30;;
5841;SDS011;2947;52.276;9.946;2023-04-22T12:28:39;9.88;;;3.00;;
5841;SDS011;2947;52.276;9.946;2023-04-22T12:31:07;4.32;;;2.22;;
5841;SDS011;2947;52.276;9.946;2023-04-22T12:33:33;5.28;;;2.75;;
5841;SDS011;2947;52.276;9.946;2023-04-22T12:36:00;8.98;;;2.45;;
5841;SDS011;2947;52.276;9.946;2023-04-22T12:38:26;6.75;;;2.42;;
5841;SDS011;2947;52.276;9.946;2023-04-22T12:40:52;3.67;;;2.22;;
5841;SDS011;2947;52.276;9.946;2023-04-22T12:43:18;4.88;;;2.40;;
5841;SDS011;2947;52.276;9.946;2023-04-22T12:45:44;4.78;;;2.10;;
5841;SDS011;2947;52.276;9.946;2023-04-22T12:48:10;4.20;;;2.67;;
5841;SDS011;2947;52.276;9.946;2023-04-22T12:50:36;4.93;;;2.67;;
5841;SDS011;2947;52.276;9.946;2023-04-22T12:53:01;5.80;;;2.83;;
5841;SDS011;2947;52.276;9.946;2023-04-22T12:55:27;8.45;;;2.40;;
5841;SDS011;2947;52.276;9.946;2023-04-22T12:57:54;7.28;;;2.20;;
5841;SDS011;2947;52.276;9.946;2023-04-22T13:00:21;4.90;;;2.20;;
5841;SDS011;2947;52.276;9.946;2023-04-22T13:02:47;4.55;;;2.28;;
5841;SDS011;2947;52.276;9.946;2023-04-22T13:05:14;5.88;;;2.30;;
5841;SDS011;2947;52.276;9.946;2023-04-22T13:07:42;3.47;;;2.17;;
5841;SDS011;2947;52.276;9.946;2023-04-22T13:10:09;14.30;;;4.97;;
5841;SDS011;2947;52.276;9.946;2023-04-22T13:12:37;5.05;;;2.15;;
5841;SDS011;2947;52.276;9.946;2023-04-22T13:15:04;7.55;;;2.40;;
5841;SDS011;2947;52.276;9.946;2023-04-22T13:17:32;3.97;;;1.98;;
5841;SDS011;2947;52.276;9.946;2023-04-22T13:19:59;4.90;;;2.10;;
5841;SDS011;2947;52.276;9.946;2023-04-22T13:22:25;6.38;;;2.22;;
5841;SDS011;2947;52.276;9.946;2023-04-22T13:24:52;6.80;;;2.15;;
5841;SDS011;2947;52.276;9.946;2023-04-22T13:27:17;6.13;;;2.70;;
5841;SDS011;2947;52.276;9.946;2023-04-22T13:29:43;5.25;;;1.83;;
5841;SDS011;2947;52.276;9.946;2023-04-22T13:32:09;4.20;;;2.00;;
5841;SDS011;2947;52.276;9.946;2023-04-22T13:34:35;3.00;;;1.83;;
5841;SDS011;2947;52.276;9.946;2023-04-22T13:37:02;3.55;;;2.17;;
5841;SDS011;2947;52.276;9.946;2023-04-22T13:39:28;5.55;;;2.13;;
5841;SDS011;2947;52.276;9.946;2023-04-22T13:41:55;4.18;;;2.63;;
5841;SDS011;2947;52.276;9.946;2023-04-22T13:44:21;3.30;;;2.00;;
5841;SDS011;2947;52.276;9.946;2023-04-22T13:46:46;3.78;;;2.42;;
5841;SDS011;2947;52.276;9.946;2023-04-22T13:49:12;4.70;;;2.60;;
5841;SDS011;2947;52.276;9.946;2023-04-22T13:51:38;3.72;;;2.15;;
5841;SDS011;2947;52.276;9.946;2023-04-22T13:54:03;5.82;;;1.77;;
5841;SDS011;2947;52.276;9.946;2023-04-22T13:56:30;6.78;;;2.38;;
5841;SDS011;2947;52.276;9.946;2023-04-22T13:58:56;4.00;;;2.15;;
5841;SDS011;2947;52.276;9.946;2023-04-22T14:01:22;7.28;;;3.13;;
5841;SDS011;2947;52.276;9.946;2023-04-22T14:03:49;5.50;;;2.08;;
5841;SDS011;2947;52.276;9.946;2023-04-22T14:06:16;8.60;;;1.70;;
5841;SDS011;2947;52.276;9.946;2023-04-22T14:08:42;5.88;;;1.95;;
5841;SDS011;2947;52.276;9.946;2023-04-22T14:11:08;6.78;;;2.15;;
5841;SDS011;2947;52.276;9.946;2023-04-22T14:13:34;4.15;;;1.70;;
5841;SDS011;2947;52.276;9.946;2023-04-22T14:16:01;5.13;;;2.03;;
5841;SDS011;2947;52.276;9.946;2023-04-22T14:18:31;3.95;;;1.30;;
5841;SDS011;2947;52.276;9.946;2023-04-22T14:21:00;5.30;;;1.90;;
5841;SDS011;2947;52.276;9.946;2023-04-22T14:23:27;3.72;;;2.10;;
5841;SDS011;2947;52.276;9.946;2023-04-22T14:25:53;4.70;;;1.92;;
5841;SDS011;2947;52.276;9.946;2023-04-22T14:28:19;3.33;;;1.50;;
5841;SDS011;2947;52.276;9.946;2023-04-22T14:30:45;4.38;;;1.73;;
5841;SDS011;2947;52.276;9.946;2023-04-22T14:33:10;3.88;;;1.70;;
5841;SDS011;2947;52.276;9.946;2023-04-22T14:35:37;8.70;;;2.13;;
5841;SDS011;2947;52.276;9.946;2023-04-22T14:38:04;3.65;;;1.95;;
5841;SDS011;2947;52.276;9.946;2023-04-22T14:40:33;4.43;;;1.80;;
5841;SDS011;2947;52.276;9.946;2023-04-22T14:43:00;3.72;;;2.13;;
5841;SDS011;2947;52.276;9.946;2023-04-22T14:45:28;5.05;;;1.98;;
5841;SDS011;2947;52.276;9.946;2023-04-22T14:47:58;4.55;;;1.65;;
5841;SDS011;2947;52.276;9.946;2023-04-22T14:50:25;9.27;;;1.90;;
5841;SDS011;2947;52.276;9.946;2023-04-22T14:52:51;4.40;;;2.00;;
5841;SDS011;2947;52.276;9.946;2023-04-22T14:55:18;3.95;;;2.10;;
5841;SDS011;2947;52.276;9.946;2023-04-22T14:57:45;6.93;;;1.88;;
5841;SDS011;2947;52.276;9.946;2023-04-22T15:00:12;4.75;;;1.77;;
5841;SDS011;2947;52.276;9.946;2023-04-22T15:02:38;5.13;;;1.83;;
5841;SDS011;2947;52.276;9.946;2023-04-22T15:05:04;3.53;;;1.95;;
5841;SDS011;2947;52.276;9.946;2023-04-22T15:07:30;4.53;;;1.88;;
5841;SDS011;2947;52.276;9.946;2023-04-22T15:09:56;7.57;;;1.67;;
5841;SDS011;2947;52.276;9.946;2023-04-22T15:12:24;6.05;;;1.90;;
5841;SDS011;2947;52.276;9.946;2023-04-22T15:14:50;4.75;;;2.05;;
5841;SDS011;2947;52.276;9.946;2023-04-22T15:17:17;4.70;;;1.75;;
5841;SDS011;2947;52.276;9.946;2023-04-22T15:19:43;3.08;;;1.70;;